»·PEaware :: N291DL KLAX-KSAN

N291DL :: KLAX-KSAN

FLIGHT INFORMATION

Flight Status: Arrived
Operator: Privately registered:
United States
More flights under this callsign
Pilot: Dominic E. (18730)
Aircraft: CESSNA 172 SKYHAWK
(C172)
More flights by this aircraft type
Origin: KLAX Los Angeles Intl
United States
Destination: KSAN San Diego Intl-Lindbergh
United States
More flights between these airports :: More routes between these airports
Route: +
File this flight plan on PilotEdge
Remarks: CAT 11
Altitude:
(Current/Filed)
7,500ft
Speed:
(Current/Filed)
120kts
Departed: 06-May-18 12:18 PM
Arrived: 06-May-18 01:30 PM
Distance/Time
Traveled:
95nm/1:12
Distance/Time
To Go:
Arrived

Flight Plot

Page will automatically refresh every two minutes.


Map Options




Map Legend


Flown Route
Filed Route
Departure Airport
Arrival Airport
Navaid (VOR, NDB)
Fix

Horizontal Profiles

Position Reports

Time Latitude Longitude Heading Altitude Ground
Speed
06-May-18 12:07 33.934294 -118.395531 174 129ft 0kts
06-May-18 12:08 33.934293 -118.395531 174 129ft 0kts
06-May-18 12:09 33.934292 -118.395531 174 129ft 0kts
06-May-18 12:10 33.934291 -118.395531 174 129ft 0kts
06-May-18 12:11 33.934290 -118.395530 174 129ft 0kts
06-May-18 12:12 33.934938 -118.393962 31 129ft 11kts
06-May-18 12:13 33.935397 -118.389651 84 129ft 17kts
06-May-18 12:14 33.936057 -118.383406 80 129ft 15kts
06-May-18 12:15 33.936452 -118.382954 19 129ft 0kts
06-May-18 12:16 33.936455 -118.382953 19 129ft 0kts
06-May-18 12:17 33.937164 -118.384540 263 129ft 5kts
06-May-18 12:18 33.935835 -118.400293 266 340ft 87kts
06-May-18 12:19 33.933401 -118.430744 267 1035ft 85kts
06-May-18 12:20 33.932789 -118.457648 267 1739ft 77kts
06-May-18 12:21 33.931860 -118.482406 267 2432ft 69kts
06-May-18 12:22 33.926251 -118.486668 171 2649ft 85kts
06-May-18 12:23 33.907101 -118.481949 168 2770ft 101kts
06-May-18 12:24 33.886742 -118.479753 153 2802ft 115kts
06-May-18 12:25 33.859425 -118.475819 172 2847ft 121kts
06-May-18 12:26 33.825435 -118.470391 172 2487ft 116kts
06-May-18 12:27 33.794818 -118.465571 172 2647ft 102kts
06-May-18 12:28 33.772778 -118.459573 120 3308ft 59kts
06-May-18 12:29 33.766222 -118.452667 104 3005ft 60kts
06-May-18 12:30 33.765580 -118.420704 108 2969ft 62kts
06-May-18 12:31 33.749164 -118.388065 120 2436ft 133kts
06-May-18 12:32 33.730922 -118.352055 109 2589ft 115kts
06-May-18 12:33 33.724316 -118.325406 104 2961ft 106kts
06-May-18 12:34 33.716241 -118.292087 104 3546ft 95kts
06-May-18 12:35 33.710172 -118.264816 103 4235ft 74kts
06-May-18 12:36 33.707518 -118.238474 95 4594ft 95kts
06-May-18 12:37 33.705639 -118.205198 94 5022ft 91kts
06-May-18 12:38 33.694874 -118.182375 143 5699ft 73kts
06-May-18 12:39 33.681835 -118.162838 131 5936ft 97kts
06-May-18 12:40 33.664032 -118.140390 144 6170ft 97kts
06-May-18 12:41 33.645158 -118.121055 144 6603ft 81kts
06-May-18 12:42 33.629974 -118.105732 146 7106ft 64kts
06-May-18 12:43 33.614887 -118.090965 147 7456ft 77kts
06-May-18 12:44 33.596396 -118.070257 148 7592ft 106kts
06-May-18 12:45 33.571923 -118.049968 151 7586ft 106kts
06-May-18 12:46 33.547307 -118.030588 151 7595ft 106kts
06-May-18 12:47 33.522552 -118.011100 151 7595ft 106kts
06-May-18 12:48 33.497843 -117.991641 153 7597ft 105kts
06-May-18 12:49 33.472573 -117.973312 153 7605ft 109kts
06-May-18 12:50 33.446099 -117.954351 153 7600ft 111kts
06-May-18 12:51 33.419440 -117.935495 157 7599ft 111kts
06-May-18 12:52 33.391743 -117.917539 156 7234ft 110kts
06-May-18 12:53 33.364635 -117.904715 164 6723ft 103kts
06-May-18 12:54 33.344417 -117.881792 138 6495ft 90kts
06-May-18 12:55 33.328313 -117.860769 137 6519ft 94kts
06-May-18 12:56 33.307667 -117.834975 136 6505ft 114kts
06-May-18 12:57 33.286314 -117.805737 134 6503ft 117kts
06-May-18 12:58 33.264748 -117.776153 134 6505ft 117kts
06-May-18 12:58 33.246910 -117.751439 133 6506ft 118kts
06-May-18 12:59 33.225780 -117.721403 133 6506ft 118kts
06-May-18 13:00 33.204564 -117.691242 133 6507ft 118kts
06-May-18 13:01 33.183413 -117.661225 133 6507ft 118kts
06-May-18 13:02 33.162192 -117.631197 133 6506ft 118kts
06-May-18 13:03 33.140725 -117.601277 133 6507ft 118kts
06-May-18 13:04 33.119341 -117.571443 133 6508ft 118kts
06-May-18 13:05 33.097570 -117.542090 134 6508ft 118kts
06-May-18 13:06 33.075674 -117.512598 134 6508ft 118kts
06-May-18 13:07 33.053796 -117.483182 134 6500ft 118kts
06-May-18 13:08 33.031843 -117.453711 134 6501ft 118kts
06-May-18 13:09 33.009823 -117.424293 135 6404ft 125kts
06-May-18 13:10 32.987560 -117.394880 134 5699ft 118kts
06-May-18 13:11 32.965853 -117.366811 134 5320ft 112kts
06-May-18 13:12 32.947127 -117.342897 134 4999ft 117kts
06-May-18 13:13 32.924331 -117.314498 134 4622ft 118kts
06-May-18 13:14 32.903009 -117.288148 134 4594ft 105kts
06-May-18 13:15 32.883009 -117.263549 142 4577ft 105kts
06-May-18 13:16 32.854287 -117.247304 135 3947ft 118kts
06-May-18 13:17 32.841757 -117.213716 93 3385ft 111kts
06-May-18 13:18 32.837959 -117.177866 46 2212ft 102kts
06-May-18 13:19 32.860185 -117.184757 12 2605ft 81kts
06-May-18 13:20 32.848434 -117.160514 148 3005ft 105kts
06-May-18 13:21 32.821225 -117.155405 185 3170ft 97kts
06-May-18 13:22 32.792382 -117.158100 190 3138ft 100kts
06-May-18 13:23 32.768105 -117.173487 250 2726ft 107kts
06-May-18 13:24 32.764954 -117.201349 228 2544ft 83kts
06-May-18 13:25 32.750229 -117.183555 109 1455ft 82kts
06-May-18 13:27 32.741861 -117.160443 110 1255ft 73kts
06-May-18 13:28 32.729574 -117.148684 217 1251ft 68kts
06-May-18 13:29 32.728529 -117.168810 286 440ft 60kts
06-May-18 13:30 32.732134 -117.184056 288 18ft 6kts
06-May-18 13:31 32.733108 -117.184256 16 18ft 0kts
06-May-18 13:32 32.733109 -117.184256 16 18ft 0kts
06-May-18 13:33 32.734103 -117.183899 43 18ft 4kts
06-May-18 13:34 32.733996 -117.183157 104 18ft 0kts

Navigation Log

Ident Type
1. KLAX Airport
2. KSAN Airport